createdAt,value
2019-04-21T00:00:25.973Z,46.30
2019-04-21T00:01:39.916Z,46.60
2019-04-21T00:02:39.315Z,46.70
2019-04-21T00:03:50.090Z,46.70
2019-04-21T00:05:12.936Z,47.00
2019-04-21T00:06:18.374Z,47.10
2019-04-21T00:07:23.814Z,47.30
2019-04-21T00:08:39.236Z,47.40
2019-04-21T00:09:39.850Z,47.40
2019-04-21T00:10:40.585Z,47.70
2019-04-21T00:11:48.308Z,47.90
2019-04-21T00:12:54.758Z,48.00
2019-04-21T00:13:56.424Z,48.10
2019-04-21T00:15:05.017Z,48.20
2019-04-21T00:16:07.125Z,48.40
2019-04-21T00:17:11.489Z,48.40
2019-04-21T00:18:23.398Z,48.30
2019-04-21T00:19:33.228Z,48.50
2019-04-21T00:20:43.941Z,48.60
2019-04-21T00:21:49.237Z,48.80
2019-04-21T00:23:10.202Z,48.90
2019-04-21T00:24:28.801Z,48.80
2019-04-21T00:25:31.139Z,48.90
2019-04-21T00:26:42.733Z,49.20
2019-04-21T00:27:48.778Z,49.40
2019-04-21T00:28:59.430Z,49.50
2019-04-21T00:29:59.104Z,50.10
2019-04-21T00:31:04.315Z,49.60
2019-04-21T00:32:06.698Z,49.60
2019-04-21T00:33:06.791Z,49.60
2019-04-21T00:34:07.141Z,49.70
2019-04-21T00:35:15.928Z,49.60
2019-04-21T00:36:24.210Z,49.70
2019-04-21T00:37:36.555Z,49.90
2019-04-21T00:38:59.084Z,49.90
2019-04-21T00:40:09.471Z,50.00
2019-04-21T00:41:00.008Z,50.00
2019-04-21T00:42:05.445Z,50.00
2019-04-21T00:43:13.565Z,49.80
2019-04-21T00:44:12.158Z,49.80
2019-04-21T00:45:22.504Z,49.90
2019-04-21T00:46:31.179Z,50.00
2019-04-21T00:47:39.035Z,49.90
2019-04-21T00:48:48.662Z,50.10
2019-04-21T00:49:59.087Z,50.00
2019-04-21T00:51:16.884Z,50.10
2019-04-21T00:52:25.219Z,50.10
2019-04-21T00:53:40.003Z,50.30
2019-04-21T00:54:49.781Z,50.30
2019-04-21T00:56:03.280Z,50.40
2019-04-21T00:57:01.326Z,50.50
2019-04-21T00:58:08.367Z,50.60
2019-04-21T00:59:05.714Z,50.70
2019-04-21T01:00:20.218Z,50.70
2019-04-21T01:01:26.757Z,50.80
2019-04-21T01:02:41.599Z,50.70
2019-04-21T01:03:43.509Z,50.80
2019-04-21T01:04:51.378Z,51.00
2019-04-21T01:05:53.090Z,51.10
2019-04-21T01:06:56.123Z,51.10
2019-04-21T01:08:03.078Z,51.00
2019-04-21T01:09:06.291Z,51.20
2019-04-21T01:10:06.674Z,51.40
2019-04-21T01:11:17.844Z,51.30
2019-04-21T01:12:29.811Z,51.30
2019-04-21T01:13:38.805Z,51.50
2019-04-21T01:14:45.570Z,51.60
2019-04-21T01:15:49.009Z,51.60
2019-04-21T01:16:51.438Z,51.70
2019-04-21T01:18:01.483Z,52.60
2019-04-21T01:19:12.364Z,51.90
2019-04-21T01:20:10.219Z,51.90
2019-04-21T01:21:13.401Z,52.00
2019-04-21T01:22:08.817Z,52.80
2019-04-21T01:23:13.022Z,52.20
2019-04-21T01:24:24.525Z,52.20
2019-04-21T01:25:33.147Z,52.10
2019-04-21T01:26:42.787Z,52.20
2019-04-21T01:28:08.309Z,52.20
2019-04-21T01:28:59.808Z,52.20
2019-04-21T01:30:10.014Z,52.20
2019-04-21T01:31:08.727Z,52.30
2019-04-21T01:32:25.735Z,52.60
2019-04-21T01:33:35.017Z,52.70
2019-04-21T01:34:37.316Z,52.50
2019-04-21T01:35:40.175Z,52.60
2019-04-21T01:36:45.848Z,52.70
2019-04-21T01:38:06.771Z,52.80
2019-04-21T01:39:00.974Z,53.00
2019-04-21T01:40:08.488Z,53.20
2019-04-21T01:41:16.139Z,53.10
2019-04-21T01:42:19.133Z,53.40
2019-04-21T01:43:22.176Z,53.50
2019-04-21T01:44:30.308Z,53.70
2019-04-21T01:45:31.823Z,53.80
2019-04-21T01:46:33.541Z,53.90
2019-04-21T01:47:40.902Z,54.00
2019-04-21T01:48:49.460Z,54.20
2019-04-21T01:49:50.083Z,54.30
2019-04-21T01:51:01.542Z,54.50
2019-04-21T01:52:31.814Z,54.60
2019-04-21T01:53:30.727Z,54.70
2019-04-21T01:54:55.542Z,55.00
2019-04-21T01:56:01.888Z,55.00
2019-04-21T01:57:08.546Z,55.10
2019-04-21T01:58:11.746Z,55.30
2019-04-21T01:59:14.095Z,55.40
2019-04-21T02:00:45.080Z,55.40
2019-04-21T02:01:57.538Z,55.40
2019-04-21T02:03:10.426Z,55.60
2019-04-21T02:04:06.785Z,55.50
2019-04-21T02:05:18.792Z,56.40
2019-04-21T02:07:27.376Z,55.80
2019-04-21T02:08:34.580Z,55.80
2019-04-21T02:10:02.012Z,56.00
2019-04-21T02:10:54.881Z,55.90
2019-04-21T02:11:56.471Z,56.70
2019-04-21T02:12:56.828Z,56.20
2019-04-21T02:14:23.766Z,56.10
2019-04-21T02:15:18.549Z,56.40
2019-04-21T02:16:17.045Z,56.30
2019-04-21T02:17:23.560Z,56.50
2019-04-21T02:18:27.658Z,56.50
2019-04-21T02:19:31.252Z,56.60
2019-04-21T02:20:31.730Z,56.70
2019-04-21T02:21:39.455Z,56.70
2019-04-21T02:23:12.930Z,56.90
2019-04-21T02:24:05.060Z,57.00
2019-04-21T02:25:08.388Z,56.90
2019-04-21T02:26:09.736Z,57.00
2019-04-21T02:27:23.716Z,57.00
2019-04-21T02:28:36.895Z,57.10
2019-04-21T02:29:34.820Z,57.30
2019-04-21T02:32:10.646Z,57.30
2019-04-21T02:33:08.777Z,57.30
2019-04-21T02:37:40.393Z,57.30
2019-04-21T02:39:43.633Z,57.10
2019-04-21T02:41:57.865Z,57.00
2019-04-21T02:43:05.710Z,57.00
2019-04-21T02:44:11.777Z,56.90
2019-04-21T02:45:17.091Z,57.10
2019-04-21T02:46:27.413Z,57.10
2019-04-21T02:47:39.044Z,56.90
2019-04-21T02:49:45.183Z,56.80
2019-04-21T02:52:53.387Z,56.90
2019-04-21T02:56:18.613Z,57.10
2019-04-21T02:57:28.703Z,57.00
2019-04-21T02:58:39.911Z,57.20
2019-04-21T02:59:59.965Z,57.30
2019-04-21T03:01:08.050Z,57.30
2019-04-21T03:02:34.983Z,57.30
2019-04-21T03:03:54.864Z,57.30
2019-04-21T03:05:21.042Z,57.30
2019-04-21T03:06:45.344Z,57.40
2019-04-21T03:08:00.640Z,57.50
2019-04-21T03:08:58.842Z,57.60
2019-04-21T03:09:58.159Z,57.80
2019-04-21T03:11:10.987Z,57.80
2019-04-21T03:14:41.007Z,57.90
2019-04-21T03:15:59.119Z,58.00
2019-04-21T03:16:55.498Z,58.30
2019-04-21T03:18:59.952Z,58.10
2019-04-21T03:20:14.594Z,58.10
2019-04-21T03:23:40.003Z,58.50
2019-04-21T03:24:40.239Z,58.50
2019-04-21T03:27:05.654Z,58.60
2019-04-21T03:27:57.275Z,58.60
2019-04-21T03:29:03.613Z,58.60
2019-04-21T03:30:10.925Z,58.70
2019-04-21T03:34:02.726Z,58.70
2019-04-21T03:37:52.930Z,58.90
2019-04-21T03:38:53.239Z,58.80
2019-04-21T03:40:10.357Z,59.00
2019-04-21T03:41:13.682Z,59.00
2019-04-21T03:42:27.056Z,58.90
2019-04-21T03:44:34.832Z,59.00
2019-04-21T03:46:47.505Z,59.00
2019-04-21T03:51:15.881Z,59.20
2019-04-21T03:52:31.844Z,59.30
2019-04-21T03:53:25.090Z,59.30
2019-04-21T03:54:33.062Z,59.40
2019-04-21T03:57:01.398Z,59.60
2019-04-21T03:58:07.128Z,59.40
2019-04-21T04:00:13.246Z,59.60
2019-04-21T04:01:41.296Z,59.60
2019-04-21T04:02:44.841Z,59.60
2019-04-21T04:03:55.357Z,59.70
2019-04-21T04:04:52.995Z,59.60
2019-04-21T04:08:44.732Z,59.90
2019-04-21T04:11:08.330Z,59.80
2019-04-21T04:11:58.321Z,59.60
2019-04-21T04:13:11.259Z,59.70
2019-04-21T04:15:36.754Z,59.80
2019-04-21T04:17:32.840Z,59.50
2019-04-21T04:20:01.411Z,59.60
2019-04-21T04:21:03.576Z,59.40
2019-04-21T04:22:03.997Z,59.40
2019-04-21T04:23:12.752Z,59.40
2019-04-21T04:25:20.997Z,59.30
2019-04-21T04:28:46.505Z,59.20
2019-04-21T04:29:52.956Z,59.30
2019-04-21T04:30:54.279Z,59.50
2019-04-21T04:32:18.713Z,59.50
2019-04-21T04:33:15.482Z,59.70
2019-04-21T04:34:12.706Z,59.60
2019-04-21T04:35:24.866Z,59.70
2019-04-21T04:36:35.709Z,59.60
2019-04-21T04:37:31.937Z,59.60
2019-04-21T04:38:46.771Z,59.80
2019-04-21T04:39:57.086Z,59.80
2019-04-21T04:42:29.873Z,60.00
2019-04-21T04:43:23.246Z,60.00
2019-04-21T04:44:42.323Z,60.20
2019-04-21T04:46:55.816Z,60.20
2019-04-21T04:47:43.065Z,60.20
2019-04-21T04:48:51.622Z,60.00
2019-04-21T04:49:51.954Z,60.00
2019-04-21T04:51:25.164Z,59.90
2019-04-21T04:52:18.896Z,60.00
2019-04-21T04:53:20.549Z,60.00
2019-04-21T04:54:31.964Z,59.90
2019-04-21T04:55:25.758Z,60.00
2019-04-21T04:56:34.636Z,59.90
2019-04-21T05:00:05.956Z,59.90
2019-04-21T05:01:21.614Z,59.90
2019-04-21T05:02:26.166Z,59.90
2019-04-21T05:04:23.753Z,60.00
2019-04-21T05:05:49.204Z,60.10
2019-04-21T05:07:50.554Z,60.30
2019-04-21T05:09:02.823Z,60.30
2019-04-21T05:11:23.537Z,60.10
2019-04-21T05:12:03.506Z,60.20
2019-04-21T05:13:19.139Z,60.20
2019-04-21T05:14:21.798Z,60.00
2019-04-21T05:15:42.230Z,59.90
2019-04-21T05:21:12.983Z,59.90
2019-04-21T05:22:22.345Z,59.70
2019-04-21T05:23:16.157Z,59.70
2019-04-21T05:24:13.671Z,59.70
2019-04-21T05:25:21.165Z,59.60
2019-04-21T05:26:24.139Z,59.50
2019-04-21T05:27:29.578Z,59.50
2019-04-21T05:28:39.637Z,59.40
2019-04-21T05:29:58.747Z,59.30
2019-04-21T05:31:19.807Z,59.10
2019-04-21T05:32:17.171Z,59.10
2019-04-21T05:33:33.215Z,59.10
2019-04-21T05:34:32.905Z,59.00
2019-04-21T05:35:52.027Z,59.70
2019-04-21T05:36:56.751Z,59.10
2019-04-21T05:38:05.831Z,59.00
2019-04-21T05:39:27.438Z,59.10
2019-04-21T05:40:29.294Z,59.00
2019-04-21T05:41:31.407Z,59.00
2019-04-21T05:42:43.820Z,59.00
2019-04-21T05:43:54.470Z,59.10
2019-04-21T05:46:04.503Z,59.10
2019-04-21T05:47:35.673Z,58.90
2019-04-21T05:48:23.151Z,58.90
2019-04-21T05:49:40.907Z,58.90
2019-04-21T05:50:46.292Z,58.90
2019-04-21T05:51:58.444Z,59.00
2019-04-21T05:53:19.294Z,59.00
2019-04-21T05:54:26.552Z,59.00
2019-04-21T05:55:26.180Z,58.90
2019-04-21T05:56:31.847Z,58.90
2019-04-21T05:57:43.777Z,58.90
2019-04-21T05:58:43.789Z,59.50
2019-04-21T05:59:51.519Z,58.80
2019-04-21T06:02:13.970Z,58.60
2019-04-21T06:03:32.301Z,58.40
2019-04-21T06:04:34.400Z,58.20
2019-04-21T06:05:28.589Z,58.10
2019-04-21T06:06:37.551Z,58.10
2019-04-21T06:07:34.615Z,58.00
2019-04-21T06:08:46.875Z,58.00
2019-04-21T06:11:05.481Z,58.10
2019-04-21T06:12:03.458Z,58.10
2019-04-21T06:13:21.714Z,58.10
2019-04-21T06:14:20.318Z,58.20
2019-04-21T06:15:29.403Z,58.20
2019-04-21T06:16:37.465Z,58.20
2019-04-21T06:17:54.848Z,58.40
2019-04-21T06:19:12.807Z,58.30
2019-04-21T06:20:14.056Z,58.30
2019-04-21T06:21:22.228Z,58.20
2019-04-21T06:22:14.894Z,58.10
2019-04-21T06:23:33.377Z,58.00
2019-04-21T06:24:54.743Z,58.00
2019-04-21T06:28:03.548Z,57.60
2019-04-21T06:29:37.800Z,57.40
2019-04-21T06:31:05.415Z,57.40
2019-04-21T06:32:29.474Z,57.90
2019-04-21T06:33:00.294Z,57.20
2019-04-21T06:34:21.472Z,57.20
2019-04-21T06:35:45.566Z,57.20
2019-04-21T06:36:47.073Z,57.20
2019-04-21T06:37:56.752Z,57.00
2019-04-21T06:39:12.131Z,57.10
2019-04-21T06:40:23.049Z,57.10
2019-04-21T06:42:34.082Z,56.70
2019-04-21T06:44:57.443Z,56.50
2019-04-21T06:45:53.644Z,56.40
2019-04-21T06:47:06.420Z,56.10
2019-04-21T06:48:22.491Z,56.10
2019-04-21T06:49:27.875Z,56.10
2019-04-21T06:50:49.243Z,55.90
2019-04-21T06:51:49.194Z,56.20
2019-04-21T06:53:23.812Z,55.70
2019-04-21T06:54:10.197Z,55.50
2019-04-21T06:55:15.623Z,55.30
2019-04-21T06:56:34.759Z,55.40
2019-04-21T06:58:36.986Z,54.90
2019-04-21T06:59:40.233Z,55.00
2019-04-21T07:00:50.910Z,54.80
2019-04-21T07:02:13.242Z,54.80
2019-04-21T07:03:17.131Z,54.70
2019-04-21T07:05:26.361Z,54.70
2019-04-21T07:06:35.728Z,54.30
2019-04-21T07:07:35.152Z,54.30
2019-04-21T07:08:56.052Z,54.40
2019-04-21T07:09:52.924Z,54.30
2019-04-21T07:10:51.758Z,54.30
2019-04-21T07:11:59.813Z,54.00
2019-04-21T07:13:09.248Z,53.90
2019-04-21T07:15:28.360Z,53.70
2019-04-21T07:16:38.590Z,53.60
2019-04-21T07:17:38.859Z,53.60
2019-04-21T07:19:00.044Z,53.60
2019-04-21T07:20:01.876Z,53.00
2019-04-21T07:21:00.160Z,52.50
2019-04-21T07:22:15.791Z,52.50
2019-04-21T07:23:17.490Z,52.40
2019-04-21T07:24:35.503Z,52.20
2019-04-21T07:25:32.669Z,52.10
2019-04-21T07:26:42.429Z,52.00
2019-04-21T07:27:46.674Z,51.90
2019-04-21T07:28:56.343Z,51.60
2019-04-21T07:29:58.533Z,51.30
2019-04-21T07:31:13.650Z,51.40
2019-04-21T07:32:20.972Z,51.30
2019-04-21T07:33:43.475Z,51.30
2019-04-21T07:34:33.347Z,51.30
2019-04-21T07:35:32.790Z,51.20
2019-04-21T07:36:52.400Z,51.10
2019-04-21T07:37:53.437Z,51.00
2019-04-21T07:38:56.737Z,50.80
2019-04-21T07:40:01.795Z,50.80
2019-04-21T07:41:02.274Z,50.80
2019-04-21T07:42:13.266Z,50.90
2019-04-21T07:43:16.692Z,51.20
2019-04-21T07:44:28.514Z,51.10
2019-04-21T07:45:33.479Z,51.00
2019-04-21T07:46:38.598Z,51.10
2019-04-21T07:47:50.761Z,51.00
2019-04-21T07:49:04.565Z,51.40
2019-04-21T07:50:22.760Z,50.30
2019-04-21T07:51:40.459Z,50.20
2019-04-21T07:54:13.509Z,49.90
2019-04-21T07:55:54.049Z,50.00
2019-04-21T07:57:08.317Z,49.80
2019-04-21T07:58:20.991Z,49.80
2019-04-21T07:59:41.201Z,49.50
2019-04-21T08:00:45.022Z,49.10
2019-04-21T08:01:44.119Z,49.20
2019-04-21T08:02:49.263Z,49.30
2019-04-21T08:04:03.900Z,49.20
2019-04-21T08:05:23.902Z,49.10
2019-04-21T08:06:18.730Z,48.90
2019-04-21T08:07:26.627Z,48.70
2019-04-21T08:08:31.456Z,48.90
2019-04-21T08:09:32.913Z,48.90
2019-04-21T08:10:39.180Z,48.40
2019-04-21T08:11:44.262Z,48.20
2019-04-21T08:12:47.545Z,48.00
2019-04-21T08:13:57.551Z,48.10
2019-04-21T08:15:13.942Z,48.00
2019-04-21T08:16:12.817Z,48.10
2019-04-21T08:17:19.125Z,48.00
2019-04-21T08:18:28.639Z,47.80
2019-04-21T08:19:25.142Z,47.60
2019-04-21T08:20:28.645Z,47.60
2019-04-21T08:21:45.891Z,47.60
2019-04-21T08:24:07.748Z,47.60
2019-04-21T08:25:14.883Z,47.60
2019-04-21T08:26:34.503Z,47.60
2019-04-21T08:27:37.109Z,47.70
2019-04-21T08:28:40.645Z,47.90
2019-04-21T08:29:46.520Z,48.00
2019-04-21T08:30:50.250Z,48.10
2019-04-21T08:32:02.850Z,47.90
2019-04-21T08:34:17.064Z,48.10
2019-04-21T08:35:34.406Z,47.90
2019-04-21T08:37:24.141Z,47.70
2019-04-21T08:38:38.799Z,47.80
2019-04-21T08:39:50.961Z,47.70
2019-04-21T08:40:44.097Z,47.50
2019-04-21T08:41:52.358Z,47.60
2019-04-21T08:42:55.089Z,47.70
2019-04-21T08:45:02.317Z,47.60
2019-04-21T08:46:50.819Z,47.60
2019-04-21T08:47:52.058Z,47.40
2019-04-21T08:48:55.465Z,47.30
2019-04-21T08:50:02.130Z,47.10
2019-04-21T08:51:22.496Z,46.80
2019-04-21T08:52:32.136Z,47.00
2019-04-21T08:53:27.289Z,47.00
2019-04-21T08:54:41.935Z,46.90
2019-04-21T08:57:27.019Z,46.80
2019-04-21T08:58:43.337Z,46.70
2019-04-21T09:00:03.211Z,46.60
2019-04-21T09:01:08.784Z,46.70
2019-04-21T09:02:29.457Z,46.60
2019-04-21T09:03:52.057Z,46.00
2019-04-21T09:08:44.434Z,44.20
2019-04-21T09:09:47.426Z,44.20
2019-04-21T09:10:54.231Z,44.10
2019-04-21T09:14:07.759Z,43.30
2019-04-21T09:17:06.566Z,42.40
2019-04-21T09:18:21.777Z,42.20
2019-04-21T09:23:39.123Z,41.70
2019-04-21T09:27:15.847Z,41.00
2019-04-21T09:34:20.775Z,41.00
2019-04-21T09:35:47.368Z,40.10
2019-04-21T09:36:51.185Z,39.90
2019-04-21T09:38:12.655Z,40.00
2019-04-21T09:39:23.750Z,40.00
2019-04-21T09:40:59.678Z,40.00
2019-04-21T09:42:04.750Z,39.80
2019-04-21T09:43:11.907Z,38.40
2019-04-21T09:44:25.943Z,38.10
2019-04-21T09:45:26.448Z,38.10
2019-04-21T09:46:35.421Z,37.60
2019-04-21T09:47:47.031Z,37.50
2019-04-21T09:48:53.760Z,37.80
2019-04-21T09:49:52.294Z,37.90
2019-04-21T09:50:59.644Z,37.70
2019-04-21T09:52:05.924Z,37.70
2019-04-21T09:53:16.700Z,37.80
2019-04-21T09:54:22.866Z,37.10
2019-04-21T09:55:31.378Z,36.80
2019-04-21T09:56:37.439Z,36.80
2019-04-21T09:57:44.788Z,36.10
2019-04-21T09:58:45.747Z,35.50
2019-04-21T09:59:55.766Z,35.70
2019-04-21T10:01:09.819Z,35.70
2019-04-21T10:02:13.624Z,35.80
2019-04-21T10:03:13.908Z,35.80
2019-04-21T10:04:20.771Z,35.70
2019-04-21T10:05:34.084Z,36.00
2019-04-21T10:06:39.548Z,36.50
2019-04-21T10:07:46.492Z,36.60
2019-04-21T10:08:58.656Z,36.40
2019-04-21T10:10:01.387Z,36.00
2019-04-21T10:11:09.855Z,35.80
2019-04-21T10:12:19.956Z,36.00
2019-04-21T10:13:25.266Z,36.20
2019-04-21T10:14:31.316Z,36.20
2019-04-21T10:15:48.928Z,36.30
2019-04-21T10:16:51.625Z,36.10
2019-04-21T10:18:01.080Z,36.20
2019-04-21T10:19:08.869Z,36.10
2019-04-21T10:20:13.891Z,36.10
2019-04-21T10:21:24.851Z,36.40
2019-04-21T10:22:31.170Z,36.60
2019-04-21T10:23:35.906Z,36.70
2019-04-21T10:24:46.728Z,36.80
2019-04-21T10:25:54.598Z,36.70
2019-04-21T10:27:06.820Z,36.30
2019-04-21T10:28:14.974Z,36.30
2019-04-21T10:29:26.352Z,36.10
2019-04-21T10:30:34.724Z,36.10
2019-04-21T10:31:42.927Z,36.00
2019-04-21T10:32:48.355Z,36.00
2019-04-21T10:33:54.426Z,36.00
2019-04-21T10:34:59.183Z,35.80
2019-04-21T10:36:06.851Z,35.70
2019-04-21T10:37:13.312Z,35.70
2019-04-21T10:38:27.963Z,35.80
2019-04-21T10:39:33.669Z,35.60
2019-04-21T10:40:36.886Z,33.80
2019-04-21T10:41:45.757Z,31.80
2019-04-21T10:42:50.235Z,31.10
2019-04-21T10:43:58.915Z,31.20
2019-04-21T10:45:10.830Z,31.50
2019-04-21T10:46:17.016Z,30.80
2019-04-21T10:47:41.015Z,30.70
2019-04-21T10:48:52.370Z,30.10
2019-04-21T10:50:00.480Z,30.50
2019-04-21T10:51:15.458Z,30.90
2019-04-21T10:52:21.595Z,31.10
2019-04-21T10:53:49.134Z,31.40
2019-04-21T10:55:35.509Z,31.50
2019-04-21T10:56:30.619Z,31.80
2019-04-21T10:57:38.484Z,32.00
2019-04-21T10:58:52.183Z,32.10
2019-04-21T11:00:42.106Z,32.30
2019-04-21T11:01:18.941Z,32.50
2019-04-21T11:02:28.749Z,32.70
2019-04-21T11:03:54.986Z,32.60
2019-04-21T11:05:05.303Z,32.70
2019-04-21T11:06:10.978Z,32.80
2019-04-21T11:08:51.038Z,33.40
2019-04-21T11:10:07.888Z,33.60
2019-04-21T11:11:01.512Z,33.90
2019-04-21T11:12:08.255Z,33.60
2019-04-21T11:13:18.759Z,33.90
2019-04-21T11:14:27.485Z,34.00
2019-04-21T11:15:37.054Z,33.60
2019-04-21T11:16:43.327Z,33.80
2019-04-21T11:17:50.519Z,33.60
2019-04-21T11:18:58.046Z,33.60
2019-04-21T11:20:04.755Z,33.70
2019-04-21T11:21:11.279Z,34.00
2019-04-21T11:22:18.906Z,33.90
2019-04-21T11:23:25.032Z,34.10
2019-04-21T11:24:29.416Z,34.20
2019-04-21T11:25:38.058Z,34.20
2019-04-21T11:26:43.804Z,34.00
2019-04-21T11:27:49.090Z,34.10
2019-04-21T11:29:01.104Z,34.20
2019-04-21T11:30:07.832Z,34.30
2019-04-21T11:31:08.920Z,34.30
2019-04-21T11:32:21.615Z,34.30
2019-04-21T11:33:29.329Z,34.30
2019-04-21T11:34:31.490Z,34.30
2019-04-21T11:35:43.447Z,33.60
2019-04-21T11:36:52.153Z,33.60
2019-04-21T11:38:07.343Z,33.80
2019-04-21T11:39:19.802Z,33.50
2019-04-21T11:40:18.119Z,33.30
2019-04-21T11:41:21.644Z,33.30
2019-04-21T11:42:30.059Z,33.30
2019-04-21T11:43:43.152Z,33.40
2019-04-21T11:44:47.174Z,33.30
2019-04-21T11:46:10.687Z,33.20
2019-04-21T11:47:07.428Z,32.70
2019-04-21T11:48:22.504Z,32.60
2019-04-21T11:49:31.106Z,32.70
2019-04-21T11:50:39.180Z,32.70
2019-04-21T11:51:49.041Z,32.60
2019-04-21T11:52:57.186Z,32.80
2019-04-21T11:54:02.311Z,33.00
2019-04-21T11:55:18.755Z,33.00
2019-04-21T11:56:20.905Z,32.60
2019-04-21T11:57:34.946Z,32.50
2019-04-21T11:58:39.491Z,32.10
2019-04-21T11:59:48.006Z,31.60
2019-04-21T12:01:15.907Z,31.00
2019-04-21T12:02:25.744Z,30.90
2019-04-21T12:03:42.601Z,31.20
2019-04-21T12:04:45.930Z,31.20
2019-04-21T12:07:13.399Z,30.90
2019-04-21T12:07:22.903Z,31.30
2019-04-21T12:08:33.085Z,30.70
2019-04-21T12:09:43.916Z,31.20
2019-04-21T12:10:55.494Z,31.50
2019-04-21T12:12:03.370Z,31.60
2019-04-21T12:13:12.085Z,31.50
2019-04-21T12:14:26.301Z,31.30
2019-04-21T12:15:31.286Z,31.40
2019-04-21T12:16:39.305Z,31.40
2019-04-21T12:17:46.413Z,31.60
2019-04-21T12:18:54.652Z,31.50
2019-04-21T12:19:58.993Z,31.40
2019-04-21T12:21:09.293Z,31.50
2019-04-21T12:22:22.190Z,31.40
2019-04-21T12:23:34.380Z,31.40
2019-04-21T12:24:34.993Z,31.30
2019-04-21T12:25:45.293Z,31.20
2019-04-21T12:26:53.910Z,30.70
2019-04-21T12:27:58.236Z,30.80
2019-04-21T12:29:03.807Z,30.30
2019-04-21T12:30:11.348Z,30.10
2019-04-21T12:31:39.280Z,30.20
2019-04-21T12:32:56.074Z,30.40
2019-04-21T12:34:00.551Z,30.50
2019-04-21T12:35:08.219Z,30.30
2019-04-21T12:36:19.816Z,30.00
2019-04-21T12:37:27.223Z,30.60
2019-04-21T12:38:44.617Z,30.20
2019-04-21T12:39:46.781Z,30.10
2019-04-21T12:40:54.955Z,29.40
2019-04-21T12:42:02.612Z,29.70
2019-04-21T12:43:14.775Z,29.50
2019-04-21T12:44:20.473Z,29.70
2019-04-21T12:45:28.883Z,29.70
2019-04-21T12:46:36.026Z,29.90
2019-04-21T12:47:50.187Z,30.00
2019-04-21T12:48:52.170Z,29.90
2019-04-21T12:50:02.884Z,29.80
2019-04-21T12:51:07.786Z,29.70
2019-04-21T12:52:13.905Z,29.70
2019-04-21T12:53:25.593Z,29.70
2019-04-21T12:54:29.910Z,29.60
2019-04-21T12:55:43.746Z,29.60
2019-04-21T12:56:55.732Z,29.40
2019-04-21T12:58:07.622Z,29.30
2019-04-21T12:59:10.204Z,29.50
2019-04-21T13:00:22.733Z,29.60
2019-04-21T13:01:28.652Z,29.70
2019-04-21T13:02:35.719Z,29.70
2019-04-21T13:03:41.958Z,29.50
2019-04-21T13:04:49.661Z,29.70
2019-04-21T13:05:53.929Z,29.50
2019-04-21T13:06:59.378Z,29.70
2019-04-21T13:08:03.761Z,29.50
2019-04-21T13:09:13.050Z,29.30
2019-04-21T13:10:18.271Z,29.20
2019-04-21T13:11:25.415Z,28.90
2019-04-21T13:12:33.277Z,28.70
2019-04-21T13:13:55.665Z,28.80
2019-04-21T13:14:49.590Z,28.80
2019-04-21T13:15:58.597Z,28.80
2019-04-21T13:17:03.436Z,28.70
2019-04-21T13:18:10.363Z,28.70
2019-04-21T13:19:15.454Z,28.60
2019-04-21T13:20:21.061Z,28.70
2019-04-21T13:21:25.261Z,28.70
2019-04-21T13:22:30.050Z,28.80
2019-04-21T13:23:39.065Z,28.90
2019-04-21T13:24:44.555Z,29.10
2019-04-21T13:25:49.777Z,29.20
2019-04-21T13:26:58.494Z,29.30
2019-04-21T13:28:00.910Z,29.30
2019-04-21T13:29:10.229Z,29.50
2019-04-21T13:30:22.308Z,29.40
2019-04-21T13:31:26.669Z,29.70
2019-04-21T13:32:31.167Z,30.00
2019-04-21T13:33:37.752Z,29.80
2019-04-21T13:34:47.797Z,29.60
2019-04-21T13:35:55.409Z,29.40
2019-04-21T13:36:59.427Z,29.50
2019-04-21T13:38:04.655Z,29.60
2019-04-21T13:39:49.128Z,29.70
2019-04-21T13:40:44.954Z,29.60
2019-04-21T13:41:50.572Z,29.60
2019-04-21T13:42:49.561Z,29.60
2019-04-21T13:43:53.093Z,29.70
2019-04-21T13:45:00.566Z,29.60
2019-04-21T13:46:07.932Z,29.50
2019-04-21T13:47:12.586Z,29.30
2019-04-21T13:48:28.776Z,29.40
2019-04-21T13:49:41.316Z,29.60
2019-04-21T13:50:46.935Z,29.40
2019-04-21T13:51:51.990Z,29.70
2019-04-21T13:52:58.953Z,29.10
2019-04-21T13:54:09.594Z,28.90
2019-04-21T13:55:16.303Z,28.70
2019-04-21T13:56:22.705Z,28.70
2019-04-21T13:57:28.506Z,28.80
2019-04-21T13:58:42.467Z,28.90
2019-04-21T13:59:53.031Z,28.80
2019-04-21T14:00:57.956Z,28.40
2019-04-21T14:02:18.601Z,28.40
2019-04-21T14:03:29.262Z,28.40
2019-04-21T14:06:16.308Z,28.70
2019-04-21T14:07:20.558Z,28.90
2019-04-21T14:08:41.671Z,29.00
2019-04-21T14:09:45.736Z,28.90
2019-04-21T14:10:43.985Z,29.00
2019-04-21T14:13:44.743Z,29.10
2019-04-21T14:14:46.429Z,29.00
2019-04-21T14:17:10.921Z,28.80
2019-04-21T14:18:28.927Z,28.80
2019-04-21T14:21:25.098Z,29.00
2019-04-21T14:22:36.030Z,29.10
2019-04-21T14:23:48.073Z,29.30
2019-04-21T14:25:12.043Z,29.60
2019-04-21T14:26:14.329Z,29.60
2019-04-21T14:27:18.604Z,29.60
2019-04-21T14:28:26.122Z,29.60
2019-04-21T14:29:37.655Z,29.60
2019-04-21T14:30:46.225Z,29.80
2019-04-21T14:32:10.480Z,30.00
2019-04-21T14:33:14.187Z,30.20
2019-04-21T14:34:19.843Z,30.50
2019-04-21T14:35:29.365Z,30.80
2019-04-21T14:36:36.943Z,30.90
2019-04-21T14:37:42.466Z,30.90
2019-04-21T14:38:50.423Z,30.90
2019-04-21T14:40:01.976Z,31.10
2019-04-21T14:41:02.157Z,31.80
2019-04-21T14:42:11.826Z,33.50
2019-04-21T14:43:28.018Z,33.50
2019-04-21T14:44:24.902Z,33.80
2019-04-21T14:45:34.719Z,34.20
2019-04-21T14:47:11.649Z,34.60
2019-04-21T14:48:18.864Z,34.80
2019-04-21T14:49:33.135Z,35.20
2019-04-21T14:50:44.209Z,35.70
2019-04-21T14:52:17.216Z,36.20
2019-04-21T14:53:57.978Z,36.50
2019-04-21T14:55:18.554Z,36.50
2019-04-21T14:56:44.914Z,36.30
2019-04-21T14:57:43.223Z,36.20
2019-04-21T14:58:55.897Z,36.30
2019-04-21T15:00:07.162Z,36.40
2019-04-21T15:01:20.087Z,36.50
2019-04-21T15:02:29.921Z,36.40
2019-04-21T15:03:35.085Z,36.40
2019-04-21T15:04:43.935Z,36.30
2019-04-21T15:05:49.821Z,36.80
2019-04-21T15:06:59.261Z,37.10
2019-04-21T15:08:05.307Z,37.20
2019-04-21T15:09:11.661Z,37.40
2019-04-21T15:10:21.749Z,37.60
2019-04-21T15:11:33.785Z,38.10
2019-04-21T15:12:53.955Z,38.80
2019-04-21T15:13:58.207Z,38.90
2019-04-21T15:15:05.754Z,39.40
2019-04-21T15:16:11.008Z,39.10
2019-04-21T15:17:22.462Z,39.10
2019-04-21T15:20:31.559Z,38.90
2019-04-21T15:21:35.725Z,38.80
2019-04-21T15:22:39.798Z,38.70
2019-04-21T15:23:44.657Z,38.80
2019-04-21T15:24:50.143Z,38.80
2019-04-21T15:25:54.341Z,38.80
2019-04-21T15:26:59.063Z,38.90
2019-04-21T15:31:17.583Z,38.80
2019-04-21T15:32:16.860Z,38.60
2019-04-21T15:33:26.480Z,38.60
2019-04-21T15:34:45.137Z,38.60
2019-04-21T15:38:04.138Z,38.60
2019-04-21T15:39:12.151Z,38.80
2019-04-21T15:40:40.625Z,39.70
2019-04-21T15:41:36.587Z,40.10
2019-04-21T15:44:20.855Z,40.40
2019-04-21T15:45:26.435Z,40.50
2019-04-21T15:46:33.379Z,40.30
2019-04-21T15:47:42.072Z,40.40
2019-04-21T15:48:52.994Z,40.40
2019-04-21T15:52:11.636Z,40.40
2019-04-21T15:54:10.830Z,40.80
2019-04-21T15:55:22.915Z,41.80
2019-04-21T15:56:45.361Z,41.50
2019-04-21T15:57:52.310Z,41.80
2019-04-21T15:59:04.334Z,41.90
2019-04-21T16:00:24.685Z,42.30
2019-04-21T16:01:38.889Z,42.60
2019-04-21T16:02:46.631Z,42.50
2019-04-21T16:03:57.423Z,42.50
2019-04-21T16:05:12.841Z,42.40
2019-04-21T16:06:37.367Z,42.20
2019-04-21T16:07:42.342Z,42.30
2019-04-21T16:08:50.204Z,42.50
2019-04-21T16:09:52.542Z,42.70
2019-04-21T16:11:03.853Z,42.90
2019-04-21T16:12:59.082Z,43.00
2019-04-21T16:14:08.237Z,43.10
2019-04-21T16:16:49.483Z,43.90
2019-04-21T16:17:57.217Z,44.00
2019-04-21T16:19:06.101Z,44.10
2019-04-21T16:20:15.815Z,44.20
2019-04-21T16:22:01.097Z,44.60
2019-04-21T16:23:14.900Z,44.70
2019-04-21T16:24:33.706Z,45.10
2019-04-21T16:25:39.129Z,45.40
2019-04-21T16:26:44.314Z,45.70
2019-04-21T16:27:57.409Z,46.00
2019-04-21T16:29:02.750Z,46.10
2019-04-21T16:30:10.021Z,46.40
2019-04-21T16:31:18.458Z,46.80
2019-04-21T16:32:23.948Z,47.10
2019-04-21T16:33:29.272Z,47.30
2019-04-21T16:34:43.185Z,47.60
2019-04-21T16:35:42.043Z,48.00
2019-04-21T16:36:47.577Z,48.50
2019-04-21T16:37:57.254Z,48.80
2019-04-21T16:38:59.683Z,49.40
2019-04-21T16:40:09.681Z,49.90
2019-04-21T16:41:14.220Z,50.30